Terminal Aerodrome Forecast
Issued by NWS

Home | Current Version | Previous Version | Text Only | Print | Product List | Glossary On
Versions: 1 2 3 4 5 6 7 8 9 10 11 12 13 14 15 16 17 18 19
000
FTUS45 KRIW 042327
TAFLND
TAF
KLND 042327Z 0500/0524 23012G20KT P6SM VCTS SCT100CB
     FM050700 VRB05KT P6SM FEW110 SCT150
     FM051700 20009KT P6SM FEW080
     FM052000 20013G25KT P6SM FEW080
     FM052300 21014G25KT P6SM VCTS FEW080 SCT100CB=

USA.gov is the U.S. government's official web portal to all federal, state and local government web resources and services.